sensor_id;sensor_type;location;lat;lon;timestamp;P1;durP1;ratioP1;P2;durP2;ratioP2
43640;SDS011;72791;52.546;13.570;2023-10-19T00:12:46;23.50;;;13.35;;
43640;SDS011;72791;52.546;13.570;2023-10-19T00:15:17;20.05;;;13.45;;
43640;SDS011;72791;52.546;13.570;2023-10-19T00:17:49;24.55;;;14.68;;
43640;SDS011;72791;52.546;13.570;2023-10-19T00:20:18;21.67;;;13.57;;
43640;SDS011;72791;52.546;13.570;2023-10-19T00:23:13;23.45;;;14.90;;
43640;SDS011;72791;52.546;13.570;2023-10-19T00:25:44;21.55;;;14.25;;
43640;SDS011;72791;52.546;13.570;2023-10-19T00:28:30;24.77;;;14.45;;
43640;SDS011;72791;52.546;13.570;2023-10-19T00:31:00;24.27;;;15.30;;
43640;SDS011;72791;52.546;13.570;2023-10-19T00:33:29;27.17;;;15.50;;
43640;SDS011;72791;52.546;13.570;2023-10-19T00:35:59;23.70;;;13.95;;
43640;SDS011;72791;52.546;13.570;2023-10-19T00:38:31;24.73;;;13.75;;
43640;SDS011;72791;52.546;13.570;2023-10-19T00:41:00;24.88;;;14.77;;
43640;SDS011;72791;52.546;13.570;2023-10-19T00:43:46;25.52;;;14.00;;
43640;SDS011;72791;52.546;13.570;2023-10-19T00:46:17;27.15;;;15.32;;
43640;SDS011;72791;52.546;13.570;2023-10-19T00:51:37;25.35;;;14.48;;
43640;SDS011;72791;52.546;13.570;2023-10-19T00:54:10;24.55;;;15.38;;
43640;SDS011;72791;52.546;13.570;2023-10-19T00:56:41;23.52;;;15.48;;
43640;SDS011;72791;52.546;13.570;2023-10-19T00:59:29;24.13;;;14.55;;
43640;SDS011;72791;52.546;13.570;2023-10-19T01:01:56;22.60;;;13.73;;
43640;SDS011;72791;52.546;13.570;2023-10-19T01:04:42;28.15;;;15.23;;
43640;SDS011;72791;52.546;13.570;2023-10-19T01:07:10;23.88;;;13.75;;
43640;SDS011;72791;52.546;13.570;2023-10-19T01:10:08;26.77;;;15.27;;
43640;SDS011;72791;52.546;13.570;2023-10-19T01:12:37;26.95;;;14.65;;
43640;SDS011;72791;52.546;13.570;2023-10-19T01:17:54;24.17;;;15.55;;
43640;SDS011;72791;52.546;13.570;2023-10-19T01:20:29;26.35;;;14.80;;
43640;SDS011;72791;52.546;13.570;2023-10-19T01:22:57;22.00;;;14.40;;
43640;SDS011;72791;52.546;13.570;2023-10-19T01:25:41;24.60;;;15.10;;
43640;SDS011;72791;52.546;13.570;2023-10-19T01:28:14;24.02;;;14.40;;
43640;SDS011;72791;52.546;13.570;2023-10-19T01:30:43;26.35;;;15.35;;
43640;SDS011;72791;52.546;13.570;2023-10-19T01:33:30;26.00;;;14.90;;
43640;SDS011;72791;52.546;13.570;2023-10-19T01:35:56;26.63;;;15.57;;
43640;SDS011;72791;52.546;13.570;2023-10-19T01:38:37;30.17;;;15.40;;
43640;SDS011;72791;52.546;13.570;2023-10-19T01:41:04;24.58;;;15.35;;
43640;SDS011;72791;52.546;13.570;2023-10-19T01:43:41;28.60;;;15.88;;
43640;SDS011;72791;52.546;13.570;2023-10-19T01:46:10;27.10;;;16.38;;
43640;SDS011;72791;52.546;13.570;2023-10-19T01:48:57;25.20;;;15.13;;
43640;SDS011;72791;52.546;13.570;2023-10-19T01:51:24;25.88;;;15.15;;
43640;SDS011;72791;52.546;13.570;2023-10-19T01:53:52;23.17;;;15.13;;
43640;SDS011;72791;52.546;13.570;2023-10-19T01:56:22;24.77;;;15.93;;
43640;SDS011;72791;52.546;13.570;2023-10-19T01:58:48;29.20;;;14.48;;
43640;SDS011;72791;52.546;13.570;2023-10-19T02:01:17;25.10;;;15.43;;
43640;SDS011;72791;52.546;13.570;2023-10-19T02:03:58;25.90;;;15.77;;
43640;SDS011;72791;52.546;13.570;2023-10-19T02:06:27;26.30;;;15.15;;
43640;SDS011;72791;52.546;13.570;2023-10-19T02:09:00;26.42;;;15.57;;
43640;SDS011;72791;52.546;13.570;2023-10-19T02:11:27;25.92;;;15.25;;
43640;SDS011;72791;52.546;13.570;2023-10-19T02:13:54;29.88;;;16.15;;
43640;SDS011;72791;52.546;13.570;2023-10-19T02:16:25;28.75;;;15.18;;
43640;SDS011;72791;52.546;13.570;2023-10-19T02:18:52;29.40;;;16.40;;
43640;SDS011;72791;52.546;13.570;2023-10-19T02:21:18;24.63;;;16.10;;
43640;SDS011;72791;52.546;13.570;2023-10-19T02:23:50;29.98;;;17.25;;
43640;SDS011;72791;52.546;13.570;2023-10-19T02:26:17;24.30;;;15.63;;
43640;SDS011;72791;52.546;13.570;2023-10-19T02:28:45;27.25;;;15.93;;
43640;SDS011;72791;52.546;13.570;2023-10-19T02:31:17;27.10;;;16.55;;
43640;SDS011;72791;52.546;13.570;2023-10-19T02:33:45;26.73;;;16.05;;
43640;SDS011;72791;52.546;13.570;2023-10-19T02:36:13;26.02;;;15.85;;
43640;SDS011;72791;52.546;13.570;2023-10-19T02:38:41;29.77;;;16.52;;
43640;SDS011;72791;52.546;13.570;2023-10-19T02:41:13;27.67;;;16.42;;
43640;SDS011;72791;52.546;13.570;2023-10-19T02:43:43;27.92;;;16.85;;
43640;SDS011;72791;52.546;13.570;2023-10-19T02:46:16;25.98;;;15.80;;
43640;SDS011;72791;52.546;13.570;2023-10-19T02:48:45;25.73;;;16.05;;
43640;SDS011;72791;52.546;13.570;2023-10-19T02:51:34;25.77;;;15.60;;
43640;SDS011;72791;52.546;13.570;2023-10-19T02:53:59;27.63;;;16.58;;
43640;SDS011;72791;52.546;13.570;2023-10-19T02:56:27;26.38;;;15.38;;
43640;SDS011;72791;52.546;13.570;2023-10-19T02:58:55;26.67;;;16.50;;
43640;SDS011;72791;52.546;13.570;2023-10-19T03:01:42;26.35;;;16.40;;
43640;SDS011;72791;52.546;13.570;2023-10-19T03:04:12;29.00;;;15.88;;
43640;SDS011;72791;52.546;13.570;2023-10-19T03:06:38;29.30;;;17.73;;
43640;SDS011;72791;52.546;13.570;2023-10-19T03:09:06;27.83;;;17.42;;
43640;SDS011;72791;52.546;13.570;2023-10-19T03:11:39;25.65;;;16.27;;
43640;SDS011;72791;52.546;13.570;2023-10-19T03:14:06;28.15;;;16.60;;
43640;SDS011;72791;52.546;13.570;2023-10-19T03:16:33;28.02;;;16.27;;
43640;SDS011;72791;52.546;13.570;2023-10-19T03:19:02;30.13;;;16.52;;
43640;SDS011;72791;52.546;13.570;2023-10-19T03:21:29;28.45;;;16.58;;
43640;SDS011;72791;52.546;13.570;2023-10-19T03:23:58;28.40;;;17.02;;
43640;SDS011;72791;52.546;13.570;2023-10-19T03:26:40;27.27;;;16.75;;
43640;SDS011;72791;52.546;13.570;2023-10-19T03:29:15;29.88;;;17.77;;
43640;SDS011;72791;52.546;13.570;2023-10-19T03:32:01;30.15;;;17.70;;
43640;SDS011;72791;52.546;13.570;2023-10-19T03:34:27;28.13;;;16.75;;
43640;SDS011;72791;52.546;13.570;2023-10-19T03:36:56;30.27;;;17.13;;
43640;SDS011;72791;52.546;13.570;2023-10-19T03:39:21;29.83;;;15.82;;
43640;SDS011;72791;52.546;13.570;2023-10-19T03:41:47;28.55;;;17.35;;
43640;SDS011;72791;52.546;13.570;2023-10-19T03:44:17;28.83;;;16.55;;
43640;SDS011;72791;52.546;13.570;2023-10-19T03:46:53;27.92;;;16.63;;
43640;SDS011;72791;52.546;13.570;2023-10-19T03:49:36;29.23;;;16.92;;
43640;SDS011;72791;52.546;13.570;2023-10-19T03:52:05;24.80;;;15.13;;
43640;SDS011;72791;52.546;13.570;2023-10-19T03:54:34;27.20;;;17.42;;
43640;SDS011;72791;52.546;13.570;2023-10-19T03:57:07;26.15;;;16.42;;
43640;SDS011;72791;52.546;13.570;2023-10-19T03:59:39;29.65;;;16.67;;
43640;SDS011;72791;52.546;13.570;2023-10-19T04:02:06;26.35;;;16.05;;
43640;SDS011;72791;52.546;13.570;2023-10-19T04:04:39;30.92;;;18.77;;
43640;SDS011;72791;52.546;13.570;2023-10-19T04:07:09;26.08;;;16.60;;
43640;SDS011;72791;52.546;13.570;2023-10-19T04:09:54;29.35;;;17.10;;
43640;SDS011;72791;52.546;13.570;2023-10-19T04:15:00;31.40;;;17.17;;
43640;SDS011;72791;52.546;13.570;2023-10-19T04:17:36;31.20;;;18.25;;
43640;SDS011;72791;52.546;13.570;2023-10-19T04:20:06;30.95;;;17.45;;
43640;SDS011;72791;52.546;13.570;2023-10-19T04:22:45;29.52;;;17.25;;
43640;SDS011;72791;52.546;13.570;2023-10-19T04:25:14;30.60;;;17.33;;
43640;SDS011;72791;52.546;13.570;2023-10-19T04:27:43;35.22;;;18.25;;
43640;SDS011;72791;52.546;13.570;2023-10-19T04:30:15;30.33;;;16.67;;
43640;SDS011;72791;52.546;13.570;2023-10-19T04:32:42;30.83;;;16.85;;
43640;SDS011;72791;52.546;13.570;2023-10-19T04:35:08;31.40;;;18.65;;
43640;SDS011;72791;52.546;13.570;2023-10-19T04:37:39;28.63;;;17.13;;
43640;SDS011;72791;52.546;13.570;2023-10-19T04:40:08;30.88;;;18.02;;
43640;SDS011;72791;52.546;13.570;2023-10-19T04:42:34;30.00;;;17.48;;
43640;SDS011;72791;52.546;13.570;2023-10-19T04:45:02;33.17;;;17.58;;
43640;SDS011;72791;52.546;13.570;2023-10-19T04:47:33;31.48;;;19.38;;
43640;SDS011;72791;52.546;13.570;2023-10-19T04:50:04;32.90;;;20.27;;
43640;SDS011;72791;52.546;13.570;2023-10-19T04:52:30;29.35;;;18.25;;
43640;SDS011;72791;52.546;13.570;2023-10-19T04:54:57;30.05;;;19.20;;
43640;SDS011;72791;52.546;13.570;2023-10-19T04:57:24;29.02;;;18.02;;
43640;SDS011;72791;52.546;13.570;2023-10-19T04:59:51;29.92;;;18.67;;
43640;SDS011;72791;52.546;13.570;2023-10-19T05:02:17;35.42;;;19.08;;
43640;SDS011;72791;52.546;13.570;2023-10-19T05:04:43;29.70;;;18.48;;
43640;SDS011;72791;52.546;13.570;2023-10-19T05:07:09;32.67;;;19.42;;
43640;SDS011;72791;52.546;13.570;2023-10-19T05:09:37;34.88;;;18.73;;
43640;SDS011;72791;52.546;13.570;2023-10-19T05:12:05;32.40;;;19.52;;
43640;SDS011;72791;52.546;13.570;2023-10-19T05:14:38;30.90;;;18.73;;
43640;SDS011;72791;52.546;13.570;2023-10-19T05:17:05;36.65;;;20.15;;
43640;SDS011;72791;52.546;13.570;2023-10-19T05:19:34;31.23;;;18.67;;
43640;SDS011;72791;52.546;13.570;2023-10-19T05:22:01;34.15;;;19.00;;
43640;SDS011;72791;52.546;13.570;2023-10-19T05:24:30;33.53;;;19.67;;
43640;SDS011;72791;52.546;13.570;2023-10-19T05:26:57;31.77;;;17.95;;
43640;SDS011;72791;52.546;13.570;2023-10-19T05:29:23;30.50;;;18.77;;
43640;SDS011;72791;52.546;13.570;2023-10-19T05:31:53;32.50;;;19.92;;
43640;SDS011;72791;52.546;13.570;2023-10-19T05:34:20;28.02;;;17.08;;
43640;SDS011;72791;52.546;13.570;2023-10-19T05:36:46;30.48;;;19.38;;
43640;SDS011;72791;52.546;13.570;2023-10-19T05:39:15;35.63;;;21.65;;
43640;SDS011;72791;52.546;13.570;2023-10-19T05:41:41;32.00;;;19.95;;
43640;SDS011;72791;52.546;13.570;2023-10-19T05:44:07;31.00;;;19.95;;
43640;SDS011;72791;52.546;13.570;2023-10-19T05:46:33;32.08;;;18.70;;
43640;SDS011;72791;52.546;13.570;2023-10-19T05:48:59;33.97;;;18.38;;
43640;SDS011;72791;52.546;13.570;2023-10-19T05:51:28;32.50;;;19.70;;
43640;SDS011;72791;52.546;13.570;2023-10-19T05:53:56;32.70;;;19.25;;
43640;SDS011;72791;52.546;13.570;2023-10-19T05:56:33;36.38;;;20.33;;
43640;SDS011;72791;52.546;13.570;2023-10-19T05:58:59;30.13;;;19.48;;
43640;SDS011;72791;52.546;13.570;2023-10-19T06:01:26;32.90;;;20.98;;
43640;SDS011;72791;52.546;13.570;2023-10-19T06:03:52;31.33;;;19.17;;
43640;SDS011;72791;52.546;13.570;2023-10-19T06:06:18;29.55;;;18.70;;
43640;SDS011;72791;52.546;13.570;2023-10-19T06:08:45;36.78;;;19.00;;
43640;SDS011;72791;52.546;13.570;2023-10-19T06:11:11;33.92;;;20.23;;
43640;SDS011;72791;52.546;13.570;2023-10-19T06:13:36;34.92;;;19.90;;
43640;SDS011;72791;52.546;13.570;2023-10-19T06:16:02;28.17;;;18.73;;
43640;SDS011;72791;52.546;13.570;2023-10-19T06:18:28;33.97;;;19.75;;
43640;SDS011;72791;52.546;13.570;2023-10-19T06:20:54;33.85;;;20.67;;
43640;SDS011;72791;52.546;13.570;2023-10-19T06:23:20;35.92;;;21.13;;
43640;SDS011;72791;52.546;13.570;2023-10-19T06:25:47;35.38;;;20.80;;
43640;SDS011;72791;52.546;13.570;2023-10-19T06:28:16;34.60;;;20.13;;
43640;SDS011;72791;52.546;13.570;2023-10-19T06:30:42;35.15;;;19.80;;
43640;SDS011;72791;52.546;13.570;2023-10-19T06:33:10;35.22;;;20.30;;
43640;SDS011;72791;52.546;13.570;2023-10-19T06:35:37;35.10;;;20.73;;
43640;SDS011;72791;52.546;13.570;2023-10-19T06:38:03;34.25;;;20.85;;
43640;SDS011;72791;52.546;13.570;2023-10-19T06:40:29;33.47;;;20.65;;
43640;SDS011;72791;52.546;13.570;2023-10-19T06:42:56;35.65;;;21.35;;
43640;SDS011;72791;52.546;13.570;2023-10-19T06:45:25;33.53;;;21.05;;
43640;SDS011;72791;52.546;13.570;2023-10-19T06:47:52;33.53;;;19.17;;
43640;SDS011;72791;52.546;13.570;2023-10-19T06:50:21;34.10;;;20.73;;
43640;SDS011;72791;52.546;13.570;2023-10-19T06:52:48;32.35;;;20.65;;
43640;SDS011;72791;52.546;13.570;2023-10-19T06:55:15;34.00;;;20.27;;
43640;SDS011;72791;52.546;13.570;2023-10-19T06:57:44;28.38;;;18.70;;
43640;SDS011;72791;52.546;13.570;2023-10-19T07:00:13;34.45;;;19.98;;
43640;SDS011;72791;52.546;13.570;2023-10-19T07:02:49;36.72;;;21.08;;
43640;SDS011;72791;52.546;13.570;2023-10-19T07:05:19;31.75;;;20.40;;
43640;SDS011;72791;52.546;13.570;2023-10-19T07:08:06;31.70;;;18.65;;
43640;SDS011;72791;52.546;13.570;2023-10-19T07:10:35;34.38;;;19.52;;
43640;SDS011;72791;52.546;13.570;2023-10-19T07:13:02;32.85;;;19.50;;
43640;SDS011;72791;52.546;13.570;2023-10-19T07:15:28;32.92;;;19.92;;
43640;SDS011;72791;52.546;13.570;2023-10-19T07:17:55;33.15;;;20.13;;
43640;SDS011;72791;52.546;13.570;2023-10-19T07:20:22;32.42;;;19.58;;
43640;SDS011;72791;52.546;13.570;2023-10-19T07:22:55;34.55;;;19.92;;
43640;SDS011;72791;52.546;13.570;2023-10-19T07:25:22;35.78;;;20.40;;
43640;SDS011;72791;52.546;13.570;2023-10-19T07:27:52;30.17;;;17.55;;
43640;SDS011;72791;52.546;13.570;2023-10-19T07:30:18;31.38;;;18.92;;
43640;SDS011;72791;52.546;13.570;2023-10-19T07:32:48;30.50;;;19.33;;
43640;SDS011;72791;52.546;13.570;2023-10-19T07:35:23;28.80;;;17.85;;
43640;SDS011;72791;52.546;13.570;2023-10-19T07:37:52;31.65;;;19.40;;
43640;SDS011;72791;52.546;13.570;2023-10-19T07:40:19;28.58;;;18.20;;
43640;SDS011;72791;52.546;13.570;2023-10-19T07:42:45;30.02;;;20.10;;
43640;SDS011;72791;52.546;13.570;2023-10-19T07:45:13;32.08;;;19.20;;
43640;SDS011;72791;52.546;13.570;2023-10-19T07:47:41;32.05;;;19.58;;
43640;SDS011;72791;52.546;13.570;2023-10-19T07:50:10;27.33;;;17.70;;
43640;SDS011;72791;52.546;13.570;2023-10-19T07:52:43;31.02;;;19.45;;
43640;SDS011;72791;52.546;13.570;2023-10-19T07:55:20;33.22;;;19.58;;
43640;SDS011;72791;52.546;13.570;2023-10-19T07:57:49;35.90;;;18.45;;
43640;SDS011;72791;52.546;13.570;2023-10-19T08:00:16;31.92;;;18.17;;
43640;SDS011;72791;52.546;13.570;2023-10-19T08:02:45;29.10;;;17.92;;
43640;SDS011;72791;52.546;13.570;2023-10-19T08:05:14;31.33;;;18.33;;
43640;SDS011;72791;52.546;13.570;2023-10-19T08:07:41;31.80;;;18.45;;
43640;SDS011;72791;52.546;13.570;2023-10-19T08:10:11;33.70;;;19.75;;
43640;SDS011;72791;52.546;13.570;2023-10-19T08:12:40;28.90;;;17.80;;
43640;SDS011;72791;52.546;13.570;2023-10-19T08:15:08;32.70;;;19.27;;
43640;SDS011;72791;52.546;13.570;2023-10-19T08:17:39;30.80;;;18.27;;
43640;SDS011;72791;52.546;13.570;2023-10-19T08:20:09;32.15;;;20.00;;
43640;SDS011;72791;52.546;13.570;2023-10-19T08:22:53;31.98;;;18.00;;
43640;SDS011;72791;52.546;13.570;2023-10-19T08:25:22;32.08;;;18.88;;
43640;SDS011;72791;52.546;13.570;2023-10-19T08:27:48;29.35;;;18.02;;
43640;SDS011;72791;52.546;13.570;2023-10-19T08:30:21;30.08;;;18.52;;
43640;SDS011;72791;52.546;13.570;2023-10-19T08:32:48;33.05;;;20.58;;
43640;SDS011;72791;52.546;13.570;2023-10-19T08:35:16;27.50;;;18.67;;
43640;SDS011;72791;52.546;13.570;2023-10-19T08:37:52;33.55;;;19.15;;
43640;SDS011;72791;52.546;13.570;2023-10-19T08:40:19;31.92;;;19.75;;
43640;SDS011;72791;52.546;13.570;2023-10-19T08:42:46;34.25;;;20.38;;
43640;SDS011;72791;52.546;13.570;2023-10-19T08:45:13;29.98;;;20.33;;
43640;SDS011;72791;52.546;13.570;2023-10-19T08:47:43;29.45;;;18.95;;
43640;SDS011;72791;52.546;13.570;2023-10-19T08:58:29;29.38;;;18.67;;
43640;SDS011;72791;52.546;13.570;2023-10-19T09:00:57;31.85;;;18.27;;
43640;SDS011;72791;52.546;13.570;2023-10-19T09:03:26;31.50;;;19.88;;
43640;SDS011;72791;52.546;13.570;2023-10-19T09:05:54;30.08;;;17.83;;
43640;SDS011;72791;52.546;13.570;2023-10-19T09:08:21;28.98;;;19.42;;
43640;SDS011;72791;52.546;13.570;2023-10-19T09:10:49;32.65;;;18.83;;
43640;SDS011;72791;52.546;13.570;2023-10-19T09:13:17;28.20;;;18.25;;
43640;SDS011;72791;52.546;13.570;2023-10-19T09:15:43;29.20;;;19.13;;
43640;SDS011;72791;52.546;13.570;2023-10-19T09:18:19;32.22;;;18.45;;
43640;SDS011;72791;52.546;13.570;2023-10-19T09:20:47;30.50;;;19.17;;
43640;SDS011;72791;52.546;13.570;2023-10-19T09:23:18;31.30;;;19.23;;
43640;SDS011;72791;52.546;13.570;2023-10-19T09:25:51;28.45;;;17.55;;
43640;SDS011;72791;52.546;13.570;2023-10-19T09:28:25;29.40;;;19.30;;
43640;SDS011;72791;52.546;13.570;2023-10-19T09:30:51;27.27;;;18.13;;
43640;SDS011;72791;52.546;13.570;2023-10-19T09:33:18;30.95;;;19.27;;
43640;SDS011;72791;52.546;13.570;2023-10-19T09:35:47;32.63;;;21.00;;
43640;SDS011;72791;52.546;13.570;2023-10-19T09:38:15;38.47;;;19.40;;
43640;SDS011;72791;52.546;13.570;2023-10-19T09:40:42;31.67;;;19.60;;
43640;SDS011;72791;52.546;13.570;2023-10-19T09:43:12;26.83;;;18.23;;
43640;SDS011;72791;52.546;13.570;2023-10-19T09:45:42;33.87;;;18.23;;
43640;SDS011;72791;52.546;13.570;2023-10-19T09:48:19;28.83;;;19.50;;
43640;SDS011;72791;52.546;13.570;2023-10-19T09:50:48;30.15;;;18.52;;
43640;SDS011;72791;52.546;13.570;2023-10-19T09:53:26;33.80;;;19.08;;
43640;SDS011;72791;52.546;13.570;2023-10-19T09:55:54;32.55;;;19.92;;
43640;SDS011;72791;52.546;13.570;2023-10-19T09:58:31;32.88;;;19.02;;
43640;SDS011;72791;52.546;13.570;2023-10-19T10:01:02;29.80;;;19.85;;
43640;SDS011;72791;52.546;13.570;2023-10-19T10:06:57;28.83;;;19.10;;
43640;SDS011;72791;52.546;13.570;2023-10-19T10:09:20;27.73;;;18.17;;
43640;SDS011;72791;52.546;13.570;2023-10-19T10:11:49;30.63;;;17.88;;
43640;SDS011;72791;52.546;13.570;2023-10-19T10:14:24;33.05;;;20.33;;
43640;SDS011;72791;52.546;13.570;2023-10-19T10:17:03;30.05;;;19.05;;
43640;SDS011;72791;52.546;13.570;2023-10-19T10:19:30;32.75;;;19.33;;
43640;SDS011;72791;52.546;13.570;2023-10-19T10:22:04;30.80;;;19.50;;
43640;SDS011;72791;52.546;13.570;2023-10-19T10:24:43;34.03;;;19.73;;
43640;SDS011;72791;52.546;13.570;2023-10-19T10:27:09;32.33;;;19.10;;
43640;SDS011;72791;52.546;13.570;2023-10-19T10:29:51;31.33;;;20.27;;
43640;SDS011;72791;52.546;13.570;2023-10-19T10:32:53;29.02;;;19.27;;
43640;SDS011;72791;52.546;13.570;2023-10-19T10:38:19;35.25;;;20.48;;
43640;SDS011;72791;52.546;13.570;2023-10-19T10:40:45;32.40;;;19.25;;
43640;SDS011;72791;52.546;13.570;2023-10-19T10:43:15;31.33;;;20.15;;
43640;SDS011;72791;52.546;13.570;2023-10-19T10:45:41;30.73;;;19.23;;
43640;SDS011;72791;52.546;13.570;2023-10-19T10:48:15;32.42;;;20.23;;
43640;SDS011;72791;52.546;13.570;2023-10-19T10:50:42;33.45;;;20.63;;
43640;SDS011;72791;52.546;13.570;2023-10-19T10:53:08;29.13;;;19.63;;
43640;SDS011;72791;52.546;13.570;2023-10-19T10:55:39;31.83;;;20.42;;
43640;SDS011;72791;52.546;13.570;2023-10-19T10:58:06;30.65;;;19.98;;
43640;SDS011;72791;52.546;13.570;2023-10-19T11:00:32;32.38;;;19.75;;
43640;SDS011;72791;52.546;13.570;2023-10-19T11:03:00;29.38;;;19.67;;
43640;SDS011;72791;52.546;13.570;2023-10-19T11:05:29;34.60;;;20.48;;
43640;SDS011;72791;52.546;13.570;2023-10-19T11:08:09;32.25;;;20.25;;
43640;SDS011;72791;52.546;13.570;2023-10-19T11:10:41;29.38;;;19.13;;
43640;SDS011;72791;52.546;13.570;2023-10-19T11:13:13;30.13;;;19.25;;
43640;SDS011;72791;52.546;13.570;2023-10-19T11:15:50;31.20;;;21.50;;
43640;SDS011;72791;52.546;13.570;2023-10-19T11:21:16;34.25;;;21.50;;
43640;SDS011;72791;52.546;13.570;2023-10-19T11:26:16;34.95;;;22.90;;
43640;SDS011;72791;52.546;13.570;2023-10-19T11:28:44;36.35;;;21.67;;
43640;SDS011;72791;52.546;13.570;2023-10-19T11:31:17;36.78;;;22.38;;
43640;SDS011;72791;52.546;13.570;2023-10-19T11:33:45;36.20;;;23.67;;
43640;SDS011;72791;52.546;13.570;2023-10-19T11:36:15;37.03;;;23.63;;
43640;SDS011;72791;52.546;13.570;2023-10-19T11:38:42;35.17;;;22.60;;
43640;SDS011;72791;52.546;13.570;2023-10-19T11:41:13;35.65;;;23.42;;
43640;SDS011;72791;52.546;13.570;2023-10-19T11:43:40;38.50;;;23.77;;
43640;SDS011;72791;52.546;13.570;2023-10-19T11:46:07;31.73;;;22.27;;
43640;SDS011;72791;52.546;13.570;2023-10-19T11:48:34;34.67;;;22.63;;
43640;SDS011;72791;52.546;13.570;2023-10-19T11:51:01;33.67;;;21.95;;
43640;SDS011;72791;52.546;13.570;2023-10-19T11:53:35;36.00;;;22.40;;
43640;SDS011;72791;52.546;13.570;2023-10-19T11:56:03;39.35;;;22.15;;
43640;SDS011;72791;52.546;13.570;2023-10-19T11:58:32;31.80;;;20.95;;
43640;SDS011;72791;52.546;13.570;2023-10-19T12:01:03;34.83;;;22.80;;
43640;SDS011;72791;52.546;13.570;2023-10-19T12:03:39;33.95;;;21.42;;
43640;SDS011;72791;52.546;13.570;2023-10-19T12:06:08;30.92;;;21.08;;
43640;SDS011;72791;52.546;13.570;2023-10-19T12:08:36;33.78;;;21.77;;
43640;SDS011;72791;52.546;13.570;2023-10-19T12:11:03;32.30;;;21.35;;
43640;SDS011;72791;52.546;13.570;2023-10-19T12:13:31;32.45;;;21.40;;
43640;SDS011;72791;52.546;13.570;2023-10-19T12:15:57;34.72;;;21.90;;
43640;SDS011;72791;52.546;13.570;2023-10-19T12:18:24;35.10;;;21.00;;
43640;SDS011;72791;52.546;13.570;2023-10-19T12:20:53;34.55;;;22.75;;
43640;SDS011;72791;52.546;13.570;2023-10-19T12:23:24;34.47;;;22.50;;
43640;SDS011;72791;52.546;13.570;2023-10-19T12:25:50;36.83;;;23.02;;
43640;SDS011;72791;52.546;13.570;2023-10-19T12:28:18;31.45;;;20.88;;
43640;SDS011;72791;52.546;13.570;2023-10-19T12:30:44;38.45;;;22.25;;
43640;SDS011;72791;52.546;13.570;2023-10-19T12:33:10;35.25;;;22.02;;
43640;SDS011;72791;52.546;13.570;2023-10-19T12:35:42;31.70;;;21.83;;
43640;SDS011;72791;52.546;13.570;2023-10-19T12:38:21;39.45;;;20.85;;
43640;SDS011;72791;52.546;13.570;2023-10-19T12:40:48;35.63;;;22.05;;
43640;SDS011;72791;52.546;13.570;2023-10-19T12:43:16;36.20;;;23.40;;
43640;SDS011;72791;52.546;13.570;2023-10-19T12:45:47;33.70;;;21.92;;
43640;SDS011;72791;52.546;13.570;2023-10-19T12:48:19;38.75;;;23.40;;
43640;SDS011;72791;52.546;13.570;2023-10-19T12:50:46;35.65;;;22.50;;
43640;SDS011;72791;52.546;13.570;2023-10-19T12:53:12;38.47;;;23.35;;
43640;SDS011;72791;52.546;13.570;2023-10-19T12:55:39;40.13;;;23.75;;
43640;SDS011;72791;52.546;13.570;2023-10-19T12:58:05;34.45;;;23.40;;
43640;SDS011;72791;52.546;13.570;2023-10-19T13:00:44;35.50;;;23.88;;
43640;SDS011;72791;52.546;13.570;2023-10-19T13:03:12;36.58;;;24.30;;
43640;SDS011;72791;52.546;13.570;2023-10-19T13:05:39;39.58;;;23.75;;
43640;SDS011;72791;52.546;13.570;2023-10-19T13:08:07;37.15;;;23.80;;
43640;SDS011;72791;52.546;13.570;2023-10-19T13:10:33;35.85;;;22.38;;
43640;SDS011;72791;52.546;13.570;2023-10-19T13:13:03;36.25;;;22.65;;
43640;SDS011;72791;52.546;13.570;2023-10-19T13:15:34;34.78;;;23.08;;
43640;SDS011;72791;52.546;13.570;2023-10-19T13:18:01;46.00;;;23.40;;
43640;SDS011;72791;52.546;13.570;2023-10-19T13:20:35;38.78;;;24.45;;
43640;SDS011;72791;52.546;13.570;2023-10-19T13:23:02;38.92;;;25.30;;
43640;SDS011;72791;52.546;13.570;2023-10-19T13:25:33;39.47;;;25.00;;
43640;SDS011;72791;52.546;13.570;2023-10-19T13:28:11;37.92;;;24.75;;
43640;SDS011;72791;52.546;13.570;2023-10-19T13:30:38;41.42;;;24.55;;
43640;SDS011;72791;52.546;13.570;2023-10-19T13:33:06;42.28;;;26.23;;
43640;SDS011;72791;52.546;13.570;2023-10-19T13:35:36;43.53;;;25.75;;
43640;SDS011;72791;52.546;13.570;2023-10-19T13:38:05;43.97;;;26.73;;
43640;SDS011;72791;52.546;13.570;2023-10-19T13:40:31;41.08;;;26.35;;
43640;SDS011;72791;52.546;13.570;2023-10-19T13:42:58;36.50;;;25.02;;
43640;SDS011;72791;52.546;13.570;2023-10-19T13:45:24;44.35;;;26.75;;
43640;SDS011;72791;52.546;13.570;2023-10-19T13:47:51;43.58;;;27.55;;
43640;SDS011;72791;52.546;13.570;2023-10-19T13:50:21;43.22;;;27.65;;
43640;SDS011;72791;52.546;13.570;2023-10-19T13:52:49;45.20;;;26.65;;
43640;SDS011;72791;52.546;13.570;2023-10-19T13:55:16;42.67;;;25.83;;
43640;SDS011;72791;52.546;13.570;2023-10-19T13:57:44;45.90;;;28.85;;
43640;SDS011;72791;52.546;13.570;2023-10-19T14:00:11;42.75;;;26.33;;
43640;SDS011;72791;52.546;13.570;2023-10-19T14:02:47;43.85;;;27.48;;
43640;SDS011;72791;52.546;13.570;2023-10-19T14:05:14;41.85;;;25.85;;
43640;SDS011;72791;52.546;13.570;2023-10-19T14:07:40;40.72;;;25.98;;
43640;SDS011;72791;52.546;13.570;2023-10-19T14:10:06;40.70;;;26.63;;
43640;SDS011;72791;52.546;13.570;2023-10-19T14:12:33;45.88;;;26.80;;
43640;SDS011;72791;52.546;13.570;2023-10-19T14:14:58;43.63;;;26.58;;
43640;SDS011;72791;52.546;13.570;2023-10-19T14:17:24;43.00;;;26.50;;
43640;SDS011;72791;52.546;13.570;2023-10-19T14:19:50;40.45;;;25.90;;
43640;SDS011;72791;52.546;13.570;2023-10-19T14:22:16;44.10;;;25.27;;
43640;SDS011;72791;52.546;13.570;2023-10-19T14:24:42;41.30;;;26.33;;
43640;SDS011;72791;52.546;13.570;2023-10-19T14:27:11;43.42;;;27.40;;
43640;SDS011;72791;52.546;13.570;2023-10-19T14:29:38;48.38;;;26.90;;
43640;SDS011;72791;52.546;13.570;2023-10-19T14:32:04;47.13;;;28.55;;
43640;SDS011;72791;52.546;13.570;2023-10-19T14:34:31;48.45;;;27.45;;
43640;SDS011;72791;52.546;13.570;2023-10-19T14:36:57;46.20;;;28.55;;
43640;SDS011;72791;52.546;13.570;2023-10-19T14:39:23;45.88;;;26.52;;
43640;SDS011;72791;52.546;13.570;2023-10-19T14:41:49;50.72;;;29.02;;
43640;SDS011;72791;52.546;13.570;2023-10-19T14:44:15;46.20;;;29.27;;
43640;SDS011;72791;52.546;13.570;2023-10-19T14:46:41;43.28;;;26.48;;
43640;SDS011;72791;52.546;13.570;2023-10-19T14:49:06;46.22;;;27.70;;
43640;SDS011;72791;52.546;13.570;2023-10-19T14:51:32;47.00;;;28.45;;
43640;SDS011;72791;52.546;13.570;2023-10-19T14:53:58;48.92;;;29.80;;
43640;SDS011;72791;52.546;13.570;2023-10-19T14:56:23;42.95;;;27.65;;
43640;SDS011;72791;52.546;13.570;2023-10-19T14:58:50;47.60;;;28.02;;
43640;SDS011;72791;52.546;13.570;2023-10-19T15:01:25;44.70;;;28.23;;
43640;SDS011;72791;52.546;13.570;2023-10-19T15:03:51;45.15;;;28.88;;